Time;durP1;ratioP1;P1;durP2;ratioP2;P2;SDS_P1;SDS_P2;PMS_P1;PMS_P2;Temp;Humidity;BMP_temperature;BMP_pressure;BME280_temperature;BME280_humidity;BME280_pressure;Samples;Min_cycle;Max_cycle;Signal;HPM_P1;HPM_P2
2023/03/15 00:00:27;;;;;;;7.22;1.83;;;5.20;99.90;;;;;;4951236;28;20042;-55
2023/03/15 00:02:53;;;;;;;6.20;2.10;;;5.00;99.90;;;;;;4951755;28;20691;-53
2023/03/15 00:05:21;;;;;;;11.88;3.38;;;4.90;99.90;;;;;;4951249;28;20032;-52
2023/03/15 00:07:46;;;;;;;11.70;2.45;;;4.80;99.90;;;;;;4951521;28;20034;-52
2023/03/15 00:10:12;;;;;;;11.70;3.15;;;4.70;99.90;;;;;;4951707;28;20039;-55
2023/03/15 00:12:41;;;;;;;13.60;2.05;;;4.60;99.90;;;;;;4952366;28;20369;-55
2023/03/15 00:15:07;;;;;;;7.70;1.88;;;4.50;99.90;;;;;;4953647;28;20023;-51
2023/03/15 00:17:33;;;;;;;8.52;3.20;;;4.50;99.90;;;;;;4955030;28;20042;-52
2023/03/15 00:19:59;;;;;;;8.43;2.00;;;4.40;99.90;;;;;;4954218;28;20102;-52
2023/03/15 00:22:24;;;;;;;4.38;1.95;;;4.40;99.90;;;;;;4954035;28;20114;-49
2023/03/15 00:24:50;;;;;;;9.05;2.63;;;4.40;99.90;;;;;;4954072;28;20114;-52
2023/03/15 00:27:15;;;;;;;6.88;2.15;;;4.30;99.90;;;;;;4954045;28;20193;-52
2023/03/15 00:29:41;;;;;;;5.05;1.90;;;;;;;;;;4953866;28;20038;-50
2023/03/15 00:32:07;;;;;;;9.57;2.00;;;4.20;99.90;;;;;;4954021;28;20027;-52
2023/03/15 00:34:32;;;;;;;8.63;2.67;;;4.10;99.90;;;;;;4952739;29;20024;-55
2023/03/15 00:36:58;;;;;;;15.52;3.47;;;4.00;99.90;;;;;;4953868;28;20023;-49
2023/03/15 00:39:24;;;;;;;17.65;3.03;;;4.10;99.90;;;;;;4953597;28;20042;-48
2023/03/15 00:41:50;;;;;;;8.57;2.67;;;4.10;99.90;;;;;;4953903;28;20019;-52
2023/03/15 00:44:15;;;;;;;8.02;2.88;;;4.10;99.90;;;;;;4954033;28;20376;-52
2023/03/15 00:46:41;;;;;;;9.00;1.98;;;4.20;99.90;;;;;;4953721;28;20039;-51
2023/03/15 00:49:06;;;;;;;16.02;2.45;;;4.20;99.90;;;;;;4954264;28;20031;-51
2023/03/15 00:51:32;;;;;;;9.60;1.88;;;4.10;99.90;;;;;;4953896;28;20030;-48
2023/03/15 00:53:58;;;;;;;12.50;3.00;;;4.10;99.90;;;;;;4953764;28;20027;-49
2023/03/15 00:56:26;;;;;;;8.55;2.75;;;4.00;99.90;;;;;;4953700;28;20042;-53
2023/03/15 00:58:52;;;;;;;9.85;2.10;;;3.90;99.90;;;;;;4953521;28;20023;-52
2023/03/15 01:01:20;;;;;;;4.40;1.80;;;3.80;99.90;;;;;;4952313;28;20031;-53
2023/03/15 01:03:47;;;;;;;6.90;2.20;;;3.80;99.90;;;;;;4953615;28;20106;-51
2023/03/15 01:06:30;;;;;;;13.27;2.45;;;3.70;99.90;;;;;;4952088;29;20079;-49
2023/03/15 01:08:56;;;;;;;9.68;2.53;;;3.50;99.90;;;;;;4953151;28;20030;-51
2023/03/15 01:11:24;;;;;;;9.73;2.28;;;3.50;99.90;;;;;;4953714;28;20487;-48
2023/03/15 01:13:51;;;;;;;14.68;2.35;;;3.50;99.90;;;;;;4953558;28;20027;-47
2023/03/15 01:16:17;;;;;;;10.13;2.25;;;3.40;99.90;;;;;;4952230;29;20070;-47
2023/03/15 01:18:43;;;;;;;10.85;2.72;;;3.40;99.90;;;;;;4953173;28;20043;-51
2023/03/15 01:21:12;;;;;;;8.95;2.33;;;3.40;99.90;;;;;;4953235;28;20050;-50
2023/03/15 01:23:37;;;;;;;6.40;2.20;;;3.30;99.90;;;;;;4957204;28;20126;-49
2023/03/15 01:26:05;;;;;;;6.15;2.50;;;3.40;99.90;;;;;;4957240;28;20106;-51
2023/03/15 01:28:31;;;;;;;5.50;1.90;;;3.30;99.90;;;;;;4957473;28;20404;-49
2023/03/15 01:30:57;;;;;;;6.22;2.13;;;3.30;99.90;;;;;;4958476;28;20024;-53
2023/03/15 01:33:22;;;;;;;8.38;2.13;;;3.40;99.90;;;;;;4959548;28;20031;-54
2023/03/15 01:35:56;;;;;;;8.05;2.35;;;3.40;99.90;;;;;;4957682;28;20038;-53
2023/03/15 01:38:21;;;;;;;6.75;2.03;;;3.40;99.90;;;;;;4957229;28;20077;-50
2023/03/15 01:40:47;;;;;;;6.55;1.90;;;3.40;99.90;;;;;;4956928;28;20075;-53
2023/03/15 01:43:12;;;;;;;6.07;2.25;;;3.40;99.90;;;;;;4956142;29;20023;-51
2023/03/15 01:46:14;;;;;;;6.70;2.25;;;3.40;99.90;;;;;;4957069;28;20032;-52
2023/03/15 01:49:04;;;;;;;6.47;1.85;;;3.30;99.90;;;;;;4957007;28;20027;-54
2023/03/15 01:51:36;;;;;;;6.45;2.55;;;3.30;99.90;;;;;;4956963;28;20034;-55
2023/03/15 01:54:05;;;;;;;6.65;2.13;;;3.20;99.90;;;;;;4956891;28;20055;-48
2023/03/15 01:56:33;;;;;;;8.18;1.83;;;3.20;99.90;;;;;;4956760;28;20035;-49
2023/03/15 01:59:01;;;;;;;8.60;2.65;;;3.20;99.90;;;;;;4956675;28;20030;-50
2023/03/15 02:01:28;;;;;;;3.92;2.22;;;3.10;99.90;;;;;;4956675;28;20031;-52
2023/03/15 02:04:02;;;;;;;9.95;2.65;;;3.10;99.90;;;;;;4956721;28;20560;-52
2023/03/15 02:06:28;;;;;;;4.28;1.80;;;3.10;99.90;;;;;;4956418;28;20070;-53
2023/03/15 02:08:59;;;;;;;7.50;2.30;;;3.10;99.90;;;;;;4956060;28;20023;-53
2023/03/15 02:11:26;;;;;;;10.32;2.58;;;3.10;99.90;;;;;;4956482;28;20019;-49
2023/03/15 02:13:53;;;;;;;10.18;2.25;;;3.00;99.90;;;;;;4956639;28;20154;-49
2023/03/15 02:16:20;;;;;;;8.60;2.97;;;3.00;99.90;;;;;;4956342;28;20038;-50
2023/03/15 02:18:46;;;;;;;11.27;2.30;;;3.00;99.90;;;;;;4954672;29;20038;-48
2023/03/15 02:21:26;;;;;;;10.00;2.90;;;3.00;99.90;;;;;;4956309;28;20027;-48
2023/03/15 02:24:08;;;;;;;5.18;1.90;;;2.90;99.90;;;;;;4956302;28;20031;-49
2023/03/15 02:26:41;;;;;;;9.02;2.40;;;2.80;99.90;;;;;;4956228;28;20444;-48
2023/03/15 02:29:07;;;;;;;11.57;3.13;;;2.90;99.90;;;;;;4955905;28;20027;-51
2023/03/15 02:31:36;;;;;;;6.95;2.30;;;2.90;99.90;;;;;;4956097;28;20027;-48
2023/03/15 02:34:04;;;;;;;7.35;3.20;;;2.70;99.90;;;;;;4955501;28;20024;-48
2023/03/15 02:36:30;;;;;;;11.95;2.58;;;2.70;99.90;;;;;;4955961;28;20026;-49
2023/03/15 02:38:56;;;;;;;8.88;2.50;;;2.70;99.90;;;;;;4956062;28;20027;-52
2023/03/15 02:41:38;;;;;;;9.20;2.47;;;2.70;99.90;;;;;;4955897;28;20430;-48
2023/03/15 02:44:27;;;;;;;9.90;2.40;;;2.70;99.90;;;;;;4955880;28;20382;-49
2023/03/15 02:46:54;;;;;;;8.30;2.83;;;;;;;;;;4955193;29;20047;-47
2023/03/15 02:49:24;;;;;;;8.95;2.22;;;2.60;99.90;;;;;;4955650;29;20027;-53
2023/03/15 02:51:49;;;;;;;8.63;2.10;;;2.60;99.90;;;;;;4956213;28;20097;-50
2023/03/15 02:54:15;;;;;;;6.13;1.83;;;2.50;99.90;;;;;;4955743;28;20488;-48
2023/03/15 02:56:41;;;;;;;6.45;2.50;;;2.50;99.90;;;;;;4955677;28;20546;-49
2023/03/15 02:59:06;;;;;;;7.18;2.13;;;2.50;99.90;;;;;;4955474;28;20122;-49
2023/03/15 03:01:36;;;;;;;6.53;2.17;;;2.50;99.90;;;;;;4954485;29;20166;-53
2023/03/15 03:04:01;;;;;;;6.90;1.80;;;2.70;99.90;;;;;;4955582;28;20174;-48
2023/03/15 03:06:27;;;;;;;12.48;2.15;;;;;;;;;;4955070;28;20521;-50
2023/03/15 03:08:53;;;;;;;4.70;2.90;;;0.60;99.90;;;;;;4954293;28;20550;-49
2023/03/15 03:11:19;;;;;;;5.35;2.00;;;2.60;99.90;;;;;;4955415;28;20114;-53
2023/03/15 03:13:44;;;;;;;9.55;2.38;;;2.60;99.90;;;;;;4955497;28;20019;-51
2023/03/15 03:16:10;;;;;;;5.22;1.52;;;2.50;99.90;;;;;;4955453;28;20099;-48
2023/03/15 03:18:36;;;;;;;7.85;2.15;;;2.50;99.90;;;;;;4955015;28;20039;-48
2023/03/15 03:21:04;;;;;;;8.82;2.58;;;2.50;99.90;;;;;;4955294;28;20034;-51
2023/03/15 03:23:32;;;;;;;9.85;2.72;;;2.50;99.90;;;;;;4955386;28;20031;-49
2023/03/15 03:25:58;;;;;;;13.25;2.65;;;2.50;99.90;;;;;;4954129;28;20031;-49
2023/03/15 03:28:26;;;;;;;6.78;2.40;;;2.40;99.90;;;;;;4955672;28;20019;-50
2023/03/15 03:30:53;;;;;;;10.68;2.10;;;2.40;99.90;;;;;;4955946;28;20399;-50
2023/03/15 03:33:20;;;;;;;11.98;2.70;;;2.40;99.90;;;;;;4955937;28;20029;-48
2023/03/15 03:35:45;;;;;;;8.32;2.05;;;2.40;99.90;;;;;;4955856;28;20027;-53
2023/03/15 03:38:11;;;;;;;9.60;2.53;;;2.40;99.90;;;;;;4955767;28;20035;-53
2023/03/15 03:40:38;;;;;;;6.78;2.75;;;2.40;99.90;;;;;;4955611;28;20038;-54
2023/03/15 03:43:04;;;;;;;18.33;2.63;;;2.40;99.90;;;;;;4955357;28;20023;-47
2023/03/15 03:45:30;;;;;;;7.38;2.08;;;2.40;99.90;;;;;;4952645;28;20083;-47
2023/03/15 03:47:55;;;;;;;6.07;1.85;;;2.40;99.90;;;;;;4954793;28;20558;-50
2023/03/15 03:50:21;;;;;;;8.63;2.78;;;2.40;99.90;;;;;;4954689;28;20106;-51
2023/03/15 03:52:46;;;;;;;4.63;2.15;;;2.40;99.90;;;;;;4954959;28;20019;-52
2023/03/15 03:55:14;;;;;;;7.13;1.88;;;2.40;99.90;;;;;;4955153;28;20031;-49
2023/03/15 03:57:41;;;;;;;3.03;1.60;;;2.30;99.90;;;;;;4954976;28;20260;-49
2023/03/15 04:00:13;;;;;;;6.43;2.28;;;2.30;99.90;;;;;;4954969;28;20038;-54
2023/03/15 04:02:41;;;;;;;5.25;2.28;;;2.30;99.90;;;;;;4954877;28;20027;-49
2023/03/15 04:05:07;;;;;;;4.28;2.60;;;2.20;99.90;;;;;;4955066;28;20078;-54
2023/03/15 04:07:33;;;;;;;8.00;2.92;;;2.20;99.90;;;;;;4954728;28;20039;-50
2023/03/15 04:10:01;;;;;;;6.70;2.25;;;2.20;99.90;;;;;;4954880;28;20027;-49
2023/03/15 04:12:26;;;;;;;6.53;2.35;;;2.10;99.90;;;;;;4953661;28;20022;-49
2023/03/15 04:14:52;;;;;;;5.13;1.88;;;;;;;;;;4954793;28;20106;-49
2023/03/15 04:17:18;;;;;;;13.40;2.47;;;2.00;99.90;;;;;;4954314;28;20054;-54
2023/03/15 04:19:46;;;;;;;6.72;2.50;;;2.00;99.90;;;;;;4953943;28;20039;-50
2023/03/15 04:22:14;;;;;;;8.68;2.15;;;2.00;99.90;;;;;;4954067;28;20035;-53
2023/03/15 04:24:40;;;;;;;8.80;2.13;;;;;;;;;;4952952;29;20031;-55
2023/03/15 04:27:07;;;;;;;9.32;2.03;;;1.90;99.90;;;;;;4953925;29;20039;-53
2023/03/15 04:29:32;;;;;;;8.75;2.50;;;1.90;99.90;;;;;;4954295;28;20356;-52
2023/03/15 04:32:00;;;;;;;9.65;2.33;;;1.90;99.90;;;;;;4952767;28;20027;-55
2023/03/15 04:34:28;;;;;;;12.40;2.63;;;1.90;99.90;;;;;;4953963;28;20019;-54
2023/03/15 04:36:53;;;;;;;5.10;2.40;;;2.00;99.90;;;;;;4953823;28;20023;-49
2023/03/15 04:39:19;;;;;;;5.95;2.33;;;2.00;99.90;;;;;;4953689;28;20119;-52
2023/03/15 04:41:45;;;;;;;20.70;3.25;;;2.00;99.90;;;;;;4953704;28;20027;-48
2023/03/15 04:44:10;;;;;;;6.00;2.00;;;2.00;99.90;;;;;;4953824;28;20110;-51
2023/03/15 04:46:36;;;;;;;7.35;2.47;;;2.00;99.90;;;;;;4953519;28;20101;-49
2023/03/15 04:49:03;;;;;;;13.07;2.78;;;1.90;99.90;;;;;;4952162;29;20019;-50
2023/03/15 04:51:29;;;;;;;9.65;2.35;;;1.90;99.90;;;;;;4953857;28;20106;-49
2023/03/15 04:53:54;;;;;;;5.35;2.50;;;2.00;99.90;;;;;;4952553;29;20114;-54
2023/03/15 04:56:20;;;;;;;6.10;2.20;;;2.00;99.90;;;;;;4953352;28;20043;-52
2023/03/15 04:58:45;;;;;;;8.55;2.17;;;2.00;99.90;;;;;;4953482;28;20031;-49
2023/03/15 05:01:11;;;;;;;6.57;2.55;;;1.90;99.90;;;;;;4953686;28;20168;-53
2023/03/15 05:03:39;;;;;;;7.68;2.42;;;2.00;99.90;;;;;;4953860;28;20046;-53
2023/03/15 05:06:08;;;;;;;7.15;2.90;;;2.00;99.90;;;;;;4954528;28;20098;-54
2023/03/15 05:08:35;;;;;;;6.03;2.33;;;2.00;99.90;;;;;;4951843;28;20092;-52
2023/03/15 05:11:01;;;;;;;10.25;4.03;;;2.00;99.90;;;;;;4953433;28;20023;-49
2023/03/15 05:13:27;;;;;;;3.92;2.78;;;1.90;99.90;;;;;;4953428;28;20027;-54
2023/03/15 05:15:52;;;;;;;6.80;3.10;;;1.90;99.90;;;;;;4953446;28;20031;-52
2023/03/15 05:18:18;;;;;;;5.22;3.13;;;1.90;99.90;;;;;;4953615;28;20031;-52
2023/03/15 05:20:43;;;;;;;6.57;2.97;;;1.80;99.90;;;;;;4953360;28;20039;-54
2023/03/15 05:23:09;;;;;;;6.93;3.65;;;;;;;;;;4953287;28;20030;-51
2023/03/15 05:25:35;;;;;;;8.60;3.17;;;;;;;;;;4953313;29;20395;-50
2023/03/15 05:28:04;;;;;;;14.55;4.07;;;;;;;;;;4953340;29;20031;-50
2023/03/15 05:30:30;;;;;;;9.88;4.55;;;;;;;;;;4952155;29;20368;-48
2023/03/15 05:32:56;;;;;;;11.60;5.95;;;;;;;;;;4953236;29;20048;-49
2023/03/15 05:35:25;;;;;;;5.85;3.88;;;;;;;;;;4951948;28;20407;-48
2023/03/15 05:37:51;;;;;;;7.07;4.05;;;;;;;;;;4953149;28;20180;-49
2023/03/15 05:40:17;;;;;;;8.18;4.07;;;;;;;;;;4953159;29;20027;-51
2023/03/15 05:42:43;;;;;;;12.10;5.20;;;;;;;;;;4951783;29;20023;-51
2023/03/15 05:45:09;;;;;;;8.85;3.92;;;;;;;;;;4953362;29;20565;-53
2023/03/15 05:47:35;;;;;;;10.23;4.15;;;;;;;;;;4953175;29;20058;-52
2023/03/15 05:50:01;;;;;;;9.68;3.92;;;;;;;;;;4953066;29;20110;-55
2023/03/15 05:52:27;;;;;;;8.80;4.53;;;;;;;;;;4953175;29;20500;-50
2023/03/15 05:54:52;;;;;;;9.75;5.43;;;2.80;99.90;;;;;;4953235;29;20027;-48
2023/03/15 05:57:18;;;;;;;12.60;5.07;;;2.70;99.90;;;;;;4953169;28;20499;-50
2023/03/15 05:59:43;;;;;;;9.35;4.25;;;2.70;99.90;;;;;;4953066;28;20031;-48
2023/03/15 06:02:09;;;;;;;11.40;3.75;;;2.60;99.90;;;;;;4951835;28;20027;-54
2023/03/15 06:04:36;;;;;;;5.28;3.25;;;2.70;99.90;;;;;;4952798;28;20035;-50
2023/03/15 06:07:02;;;;;;;5.90;4.00;;;2.60;99.90;;;;;;4952954;28;20035;-49
2023/03/15 06:09:28;;;;;;;7.75;4.90;;;2.70;99.90;;;;;;4954699;29;20118;-48
2023/03/15 06:11:54;;;;;;;5.60;3.90;;;2.80;99.90;;;;;;4956809;28;20058;-52
2023/03/15 06:14:19;;;;;;;10.23;4.10;;;2.90;99.90;;;;;;4956470;28;20047;-48
2023/03/15 06:16:45;;;;;;;10.18;4.20;;;3.00;99.90;;;;;;4989234;23;20061;-52
2023/03/15 06:19:11;;;;;;;9.13;3.58;;;3.10;99.90;;;;;;4994216;28;20072;-52
2023/03/15 06:21:37;;;;;;;12.40;5.07;;;;;;;;;;4995100;28;20050;-55
2023/03/15 06:24:03;;;;;;;12.35;4.68;;;;;;;;;;4995076;28;20026;-51
2023/03/15 06:26:28;;;;;;;10.10;4.45;;;;;;;;;;4994792;28;20450;-56
2023/03/15 06:28:54;;;;;;;15.95;4.22;;;;;;;;;;4994694;28;20029;-53
2023/03/15 06:31:20;;;;;;;10.57;3.95;;;;;;;;;;4994992;28;20046;-51
2023/03/15 06:33:46;;;;;;;7.40;3.47;;;2.20;99.90;;;;;;4994788;28;20105;-53
2023/03/15 06:36:13;;;;;;;11.07;4.68;;;3.00;99.90;;;;;;4993478;28;20079;-51
2023/03/15 06:38:38;;;;;;;18.95;5.13;;;2.90;99.90;;;;;;4993543;28;20032;-52
2023/03/15 06:41:04;;;;;;;14.15;4.68;;;;;;;;;;4994853;28;20022;-49
2023/03/15 06:43:31;;;;;;;15.55;4.30;;;;;;;;;;4993445;28;20026;-50
2023/03/15 06:45:58;;;;;;;13.02;5.30;;;;;;;;;;4995005;28;20050;-52
2023/03/15 06:48:27;;;;;;;13.05;5.75;;;3.30;99.90;;;;;;4994809;28;20029;-50
2023/03/15 06:50:53;;;;;;;9.15;5.63;;;3.30;99.90;;;;;;4994522;28;20022;-50
2023/03/15 06:53:18;;;;;;;16.05;5.72;;;3.20;99.90;;;;;;4994556;28;20037;-54
2023/03/15 06:55:44;;;;;;;13.35;6.32;;;3.10;99.90;;;;;;4994386;28;20030;-50
2023/03/15 06:58:11;;;;;;;13.57;5.90;;;3.10;99.90;;;;;;4994460;28;20039;-51
2023/03/15 07:00:37;;;;;;;9.07;6.05;;;3.10;99.90;;;;;;4993066;28;20067;-52
2023/03/15 07:03:02;;;;;;;13.00;6.55;;;3.10;99.90;;;;;;4994472;28;20150;-53
2023/03/15 07:05:28;;;;;;;14.15;7.38;;;3.10;99.90;;;;;;4994409;28;20446;-55
2023/03/15 07:07:54;;;;;;;17.90;7.95;;;3.10;99.90;;;;;;4994214;28;20026;-52
2023/03/15 07:10:20;;;;;;;13.85;6.53;;;3.20;99.90;;;;;;4993890;28;20026;-52
2023/03/15 07:12:45;;;;;;;12.85;6.78;;;3.30;99.90;;;;;;4993379;28;20117;-53
2023/03/15 07:15:11;;;;;;;19.52;7.20;;;3.40;99.90;;;;;;4994390;28;20480;-50
2023/03/15 07:17:37;;;;;;;14.20;7.20;;;3.50;99.90;;;;;;4994240;28;20034;-52
2023/03/15 07:20:04;;;;;;;16.30;7.78;;;3.60;99.90;;;;;;4992702;28;20161;-52
2023/03/15 07:22:31;;;;;;;17.85;6.88;;;3.50;99.90;;;;;;4994538;28;20045;-57
2023/03/15 07:24:56;;;;;;;16.20;6.57;;;3.60;99.90;;;;;;4994250;28;20049;-50
2023/03/15 07:27:22;;;;;;;14.43;7.70;;;3.50;99.90;;;;;;4993729;28;20031;-52
2023/03/15 07:29:47;;;;;;;15.15;7.43;;;3.50;99.90;;;;;;4993852;28;20030;-51
2023/03/15 07:32:13;;;;;;;21.42;7.22;;;3.50;99.90;;;;;;4991742;28;20073;-54
2023/03/15 07:34:39;;;;;;;17.85;6.00;;;3.60;99.90;;;;;;4991737;28;20041;-51
2023/03/15 07:37:04;;;;;;;16.25;6.13;;;3.70;99.90;;;;;;4992098;28;20490;-46
2023/03/15 07:39:31;;;;;;;13.95;6.13;;;3.80;99.90;;;;;;4992253;28;20117;-47
2023/03/15 07:41:58;;;;;;;14.48;6.60;;;3.90;99.90;;;;;;4993347;28;20034;-47
2023/03/15 07:44:24;;;;;;;13.55;6.45;;;3.90;99.90;;;;;;4992966;28;20105;-49
2023/03/15 07:46:49;;;;;;;12.50;5.55;;;4.00;99.90;;;;;;4991033;28;20122;-50
2023/03/15 07:49:15;;;;;;;11.95;6.35;;;4.10;99.90;;;;;;4992567;28;20023;-47
2023/03/15 07:51:41;;;;;;;10.68;5.13;;;4.00;99.90;;;;;;4992068;28;20030;-50
2023/03/15 07:54:07;;;;;;;13.40;5.45;;;4.00;99.90;;;;;;4991458;28;20030;-51
2023/03/15 07:56:32;;;;;;;14.27;5.70;;;4.10;99.90;;;;;;4983838;28;20022;-49
2023/03/15 07:58:58;;;;;;;12.50;5.97;;;4.20;99.90;;;;;;4991850;28;20026;-53
2023/03/15 08:01:23;;;;;;;8.73;4.88;;;4.30;99.90;;;;;;4989781;28;20034;-48
2023/03/15 08:03:49;;;;;;;13.98;6.20;;;4.30;99.90;;;;;;4976884;28;20027;-50
2023/03/15 08:06:14;;;;;;;16.30;6.05;;;4.20;99.90;;;;;;4971646;28;20023;-49
2023/03/15 08:08:40;;;;;;;18.85;6.57;;;4.20;99.90;;;;;;4973873;28;20055;-51
2023/03/15 08:11:05;;;;;;;16.73;7.00;;;4.20;99.90;;;;;;4973767;28;20107;-47
2023/03/15 08:13:31;;;;;;;14.70;6.78;;;4.20;99.90;;;;;;4972449;28;20023;-49
2023/03/15 08:15:57;;;;;;;12.40;6.72;;;4.30;99.90;;;;;;4991133;28;20027;-52
2023/03/15 08:18:22;;;;;;;19.17;7.63;;;4.30;99.90;;;;;;4992798;28;20038;-50
2023/03/15 08:20:48;;;;;;;21.15;8.13;;;4.30;99.90;;;;;;4992183;28;20200;-49
2023/03/15 08:23:16;;;;;;;14.27;6.97;;;4.40;99.90;;;;;;4990793;28;20375;-50
2023/03/15 08:25:43;;;;;;;20.52;6.95;;;4.40;99.90;;;;;;4992702;28;20407;-47
2023/03/15 08:28:10;;;;;;;14.63;6.50;;;4.50;99.90;;;;;;4992867;28;20557;-54
2023/03/15 08:30:35;;;;;;;16.00;6.10;;;4.40;99.90;;;;;;4992077;28;20026;-56
2023/03/15 08:33:02;;;;;;;12.30;6.07;;;4.40;99.90;;;;;;4991252;28;20030;-46
2023/03/15 08:35:28;;;;;;;15.73;6.38;;;4.40;99.90;;;;;;4992066;28;20022;-48
2023/03/15 08:37:54;;;;;;;12.23;5.85;;;4.40;99.90;;;;;;4991931;28;20080;-50
2023/03/15 08:40:23;;;;;;;18.33;6.78;;;4.50;99.90;;;;;;4992215;28;20019;-52
2023/03/15 08:42:48;;;;;;;14.07;5.63;;;4.50;99.90;;;;;;4992763;28;20042;-51
2023/03/15 08:45:14;;;;;;;14.00;5.85;;;4.50;99.90;;;;;;4992744;28;20026;-53
2023/03/15 08:47:41;;;;;;;12.18;5.60;;;4.50;99.90;;;;;;4992512;28;20506;-49
2023/03/15 08:50:14;;;;;;;11.52;5.18;;;4.40;99.90;;;;;;4993693;28;20109;-47
2023/03/15 08:52:40;;;;;;;13.73;5.47;;;4.40;99.90;;;;;;4993285;28;20022;-50
2023/03/15 08:55:07;;;;;;;17.05;6.22;;;4.40;99.90;;;;;;4992663;28;20034;-46
2023/03/15 08:57:32;;;;;;;9.07;5.45;;;4.40;99.90;;;;;;4992342;28;20398;-51
2023/03/15 09:00:00;;;;;;;14.25;5.88;;;4.50;99.90;;;;;;4992565;28;20030;-47
2023/03/15 09:02:25;;;;;;;11.15;5.07;;;4.60;99.90;;;;;;4992552;28;20482;-52
2023/03/15 09:04:51;;;;;;;13.95;4.97;;;4.60;99.90;;;;;;4992570;28;20046;-48
2023/03/15 09:07:16;;;;;;;9.35;4.70;;;4.70;99.90;;;;;;4991075;28;20491;-50
2023/03/15 09:09:46;;;;;;;10.70;5.90;;;4.70;99.90;;;;;;4992457;28;20031;-50
2023/03/15 09:12:15;;;;;;;9.88;3.92;;;4.70;99.90;;;;;;4992283;28;20498;-49
2023/03/15 09:14:41;;;;;;;12.25;6.20;;;4.80;99.90;;;;;;4992510;28;20372;-48
2023/03/15 09:17:07;;;;;;;11.25;4.88;;;4.80;99.90;;;;;;4992000;28;20589;-48
2023/03/15 09:19:32;;;;;;;10.18;5.63;;;4.80;99.90;;;;;;4991724;28;20030;-50
2023/03/15 09:21:58;;;;;;;7.72;4.45;;;4.80;99.90;;;;;;4992218;28;20038;-58
2023/03/15 09:24:23;;;;;;;9.60;5.25;;;4.80;99.90;;;;;;4992150;28;20079;-52
2023/03/15 09:26:49;;;;;;;10.27;5.10;;;4.80;99.90;;;;;;4991420;28;20034;-52
2023/03/15 09:29:14;;;;;;;9.35;5.20;;;4.90;99.90;;;;;;4992115;28;20019;-50
2023/03/15 09:31:40;;;;;;;8.65;5.53;;;4.90;99.90;;;;;;4992349;28;20494;-51
2023/03/15 09:34:05;;;;;;;7.95;5.55;;;4.90;99.90;;;;;;4990794;28;20389;-50
2023/03/15 09:36:32;;;;;;;16.23;6.70;;;4.90;99.90;;;;;;4991745;28;20036;-52
2023/03/15 09:38:58;;;;;;;12.45;6.10;;;4.90;99.90;;;;;;4992358;28;20034;-51
2023/03/15 09:41:29;;;;;;;10.75;6.32;;;5.00;99.90;;;;;;4990801;28;20389;-47
2023/03/15 09:44:23;;;;;;;13.40;5.55;;;5.10;99.90;;;;;;4995249;28;20040;-48
2023/03/15 09:47:04;;;;;;;9.48;6.50;;;5.10;99.90;;;;;;4995548;28;20029;-51
2023/03/15 09:49:45;;;;;;;8.32;5.45;;;5.30;99.90;;;;;;4993665;28;20378;-50
2023/03/15 09:52:21;;;;;;;11.52;5.85;;;5.40;99.90;;;;;;4995350;28;20026;-51
2023/03/15 09:54:56;;;;;;;;;;;5.60;99.90;;;;;;4995673;28;20022;-51
2023/03/15 09:57:42;;;;;;;9.50;4.63;;;5.60;99.90;;;;;;4994161;28;19913;-51
2023/03/15 10:00:13;;;;;;;8.40;5.78;;;5.60;99.90;;;;;;4993477;28;20052;-51
2023/03/15 10:02:46;;;;;;;10.02;5.93;;;5.50;99.90;;;;;;4994798;28;20113;-50
2023/03/15 10:05:21;;;;;;;12.55;5.82;;;5.60;99.90;;;;;;5007540;28;20441;-48
2023/03/15 10:07:47;;;;;;;7.07;5.30;;;5.60;99.90;;;;;;4995302;28;20053;-50
2023/03/15 10:10:31;;;;;;;9.48;5.40;;;5.70;99.90;;;;;;4995288;28;20057;-52
2023/03/15 10:13:14;;;;;;;12.02;5.60;;;6.00;99.90;;;;;;4994657;28;20490;-52
2023/03/15 10:16:02;;;;;;;9.50;5.35;;;6.50;99.90;;;;;;4993206;28;20034;-51
2023/03/15 10:18:54;;;;;;;5.55;4.40;;;6.80;99.90;;;;;;4995238;28;20034;-46
2023/03/15 10:21:55;;;;;;;5.30;4.22;;;6.60;99.90;;;;;;4974588;28;20429;-49
2023/03/15 10:24:46;;;;;;;7.13;4.45;;;6.90;99.90;;;;;;4957604;28;20118;-53
2023/03/15 10:27:21;;;;;;;5.05;3.75;;;7.00;99.90;;;;;;4974564;28;20043;-49
2023/03/15 10:29:53;;;;;;;7.97;4.43;;;7.00;99.90;;;;;;4976041;28;20034;-54
2023/03/15 10:32:24;;;;;;;5.15;3.72;;;6.80;99.90;;;;;;4976144;28;20031;-53
2023/03/15 10:34:53;;;;;;;3.67;2.97;;;6.70;99.90;;;;;;4975715;28;20058;-52
2023/03/15 10:37:23;;;;;;;5.65;3.47;;;6.80;99.90;;;;;;4984765;28;20117;-49
2023/03/15 10:39:54;;;;;;;3.63;3.28;;;6.90;99.90;;;;;;4993762;28;20185;-48
2023/03/15 10:42:29;;;;;;;4.82;3.45;;;7.20;99.90;;;;;;4995210;28;20026;-46
2023/03/15 10:44:56;;;;;;;4.35;3.58;;;7.30;99.90;;;;;;4995205;28;20418;-46
2023/03/15 10:47:24;;;;;;;4.13;2.75;;;7.40;99.90;;;;;;4993740;28;20585;-47
2023/03/15 10:49:58;;;;;;;7.40;3.53;;;7.50;99.90;;;;;;4994692;28;20038;-47
2023/03/15 10:52:38;;;;;;;4.22;3.28;;;7.40;99.90;;;;;;4994969;28;20022;-45
2023/03/15 10:55:14;;;;;;;4.25;2.75;;;7.40;99.90;;;;;;4994496;28;20027;-46
2023/03/15 10:57:51;;;;;;;7.03;2.90;;;7.20;99.90;;;;;;4994458;28;20109;-44
2023/03/15 11:00:32;;;;;;;4.53;2.00;;;7.10;99.90;;;;;;4994629;28;20499;-49
2023/03/15 11:03:06;;;;;;;2.15;1.95;;;7.10;99.90;;;;;;4994435;28;20557;-44
2023/03/15 11:05:42;;;;;;;2.80;1.98;;;7.10;99.90;;;;;;4994587;28;20513;-45
2023/03/15 11:08:15;;;;;;;;;;;7.30;99.90;;;;;;4994614;28;20401;-45
2023/03/15 11:10:43;;;;;;;2.28;1.55;;;7.20;99.90;;;;;;4994069;28;19906;-45
2023/03/15 11:13:21;;;;;;;0.90;0.90;;;7.20;99.90;;;;;;4994083;28;20065;-49
2023/03/15 11:15:55;;;;;;;1.98;1.52;;;7.30;99.90;;;;;;4994053;28;20018;-47
2023/03/15 11:18:36;;;;;;;4.22;1.70;;;7.20;99.90;;;;;;4993736;28;20116;-47
2023/03/15 11:21:09;;;;;;;1.75;1.30;;;7.20;99.90;;;;;;4994132;28;20118;-47
2023/03/15 11:23:37;;;;;;;2.00;1.80;;;7.10;99.90;;;;;;4993929;28;20031;-47
2023/03/15 11:26:05;;;;;;;1.60;1.50;;;7.10;99.90;;;;;;4993559;28;20069;-48
2023/03/15 11:28:34;;;;;;;4.25;2.22;;;7.20;99.90;;;;;;4993816;28;20498;-49
2023/03/15 11:31:03;;;;;;;21.17;14.45;;;7.20;99.90;;;;;;4993275;28;20086;-51
2023/03/15 11:33:37;;;;;;;5.03;3.15;;;7.20;99.90;;;;;;4993186;28;20032;-50
2023/03/15 11:36:10;;;;;;;2.42;1.88;;;7.10;99.90;;;;;;4993226;28;20031;-46
2023/03/15 11:38:42;;;;;;;1.48;1.30;;;7.00;99.90;;;;;;4991868;28;20415;-48
2023/03/15 11:41:23;;;;;;;1.95;1.83;;;7.10;99.90;;;;;;4993323;28;20029;-48
2023/03/15 11:44:16;;;;;;;2.45;1.48;;;7.20;99.90;;;;;;4993241;28;20030;-50
2023/03/15 11:46:54;;;;;;;2.78;1.48;;;7.50;99.90;;;;;;4992862;28;20053;-49
2023/03/15 11:49:47;;;;;;;1.27;1.23;;;7.80;99.90;;;;;;4993432;28;20049;-48
2023/03/15 11:52:15;;;;;;;1.58;1.50;;;7.90;99.90;;;;;;4994109;28;20043;-48
2023/03/15 11:54:42;;;;;;;1.50;1.40;;;8.00;99.90;;;;;;4994759;28;20033;-50
2023/03/15 11:57:35;;;;;;;1.10;1.10;;;8.00;99.90;;;;;;4992910;28;20121;-48
2023/03/15 12:00:27;;;;;;;1.63;1.52;;;8.00;99.90;;;;;;4994227;28;20041;-48
2023/03/15 12:03:15;;;;;;;1.80;1.70;;;8.00;99.90;;;;;;4993126;28;20500;-50
2023/03/15 12:06:04;;;;;;;3.05;1.98;;;8.00;99.90;;;;;;4973947;28;20089;-48
2023/03/15 12:08:44;;;;;;;2.75;2.08;;;7.90;99.90;;;;;;4989295;28;20018;-48
2023/03/15 12:11:20;;;;;;;1.52;1.25;;;7.90;99.90;;;;;;4993418;28;20034;-53
2023/03/15 12:14:00;;;;;;;2.45;1.90;;;7.90;99.90;;;;;;4993317;28;20498;-51
2023/03/15 12:16:28;;;;;;;2.42;1.70;;;7.90;99.90;;;;;;4989457;28;20048;-50
2023/03/15 12:19:08;;;;;;;2.40;1.75;;;7.80;99.90;;;;;;5011337;23;20042;-48
2023/03/15 12:21:40;;;;;;;2.15;1.63;;;7.70;99.90;;;;;;4992636;28;20100;-48
2023/03/15 12:24:15;;;;;;;2.28;1.90;;;7.60;99.90;;;;;;4993051;28;20023;-50
2023/03/15 12:26:43;;;;;;;1.60;1.50;;;7.60;99.90;;;;;;4992778;28;20027;-47
2023/03/15 12:29:11;;;;;;;2.38;2.08;;;7.60;99.90;;;;;;4992563;28;20034;-48
2023/03/15 12:31:55;;;;;;;2.67;2.40;;;7.50;99.90;;;;;;4993004;28;20057;-50
2023/03/15 12:34:36;;;;;;;3.00;2.80;;;7.60;99.90;;;;;;4991860;28;20041;-49
2023/03/15 12:37:07;;;;;;;71.57;39.00;;;7.70;99.90;;;;;;4991652;28;20030;-47
2023/03/15 12:39:35;;;;;;;5.57;4.25;;;7.90;99.90;;;;;;4990536;28;20387;-48
2023/03/15 12:42:02;;;;;;;3.38;3.08;;;8.00;99.90;;;;;;4992116;28;20402;-51
2023/03/15 12:44:30;;;;;;;3.78;3.22;;;7.90;99.90;;;;;;4992766;28;20278;-53
2023/03/15 12:47:07;;;;;;;2.47;2.28;;;8.00;99.90;;;;;;4992060;28;20101;-52
2023/03/15 12:49:34;;;;;;;2.35;1.88;;;8.10;99.90;;;;;;4991607;28;20494;-55
2023/03/15 12:52:00;;;;;;;1.90;1.80;;;8.30;99.90;;;;;;4990275;28;20026;-52
2023/03/15 12:54:41;;;;;;;1.60;1.50;;;8.40;99.90;;;;;;4976895;28;20041;-53
2023/03/15 12:57:10;;;;;;;1.70;1.60;;;8.50;99.90;;;;;;4990977;28;20038;-54
2023/03/15 12:59:51;;;;;;;1.50;1.40;;;8.50;99.90;;;;;;4992115;28;20080;-49
2023/03/15 13:02:33;;;;;;;1.50;1.40;;;8.50;99.90;;;;;;4991945;28;20489;-50
2023/03/15 13:05:08;;;;;;;1.25;0.90;;;8.50;99.90;;;;;;4990417;28;20026;-55
2023/03/15 13:08:03;;;;;;;4.33;2.43;;;8.50;99.90;;;;;;4992694;28;20031;-53
2023/03/15 13:11:02;;;;;;;12.70;7.45;;;8.40;99.90;;;;;;4991046;28;20401;-52